createdAt,value
2019-05-17T00:01:51.710Z,12.30
2019-05-17T00:04:21.989Z,12.40
2019-05-17T00:06:52.171Z,12.50
2019-05-17T00:09:22.357Z,12.60
2019-05-17T00:11:52.653Z,12.50
2019-05-17T00:14:22.861Z,12.20
2019-05-17T00:16:53.102Z,12.20
2019-05-17T00:19:23.303Z,12.30
2019-05-17T00:21:53.601Z,12.40
2019-05-17T00:24:26.345Z,12.30
2019-05-17T00:26:55.686Z,12.20
2019-05-17T00:29:26.436Z,12.20
2019-05-17T00:31:56.911Z,12.30
2019-05-17T00:34:27.270Z,12.00
2019-05-17T00:36:57.637Z,12.00
2019-05-17T00:39:27.925Z,12.10
2019-05-17T00:41:58.099Z,12.20
2019-05-17T00:44:28.368Z,12.10
2019-05-17T00:46:58.953Z,12.00
2019-05-17T00:49:29.293Z,11.90
2019-05-17T00:52:00.257Z,12.00
2019-05-17T00:54:30.454Z,11.80
2019-05-17T00:57:00.725Z,11.40
2019-05-17T00:59:30.893Z,11.10
2019-05-17T01:02:01.164Z,11.40
2019-05-17T01:04:31.502Z,11.60
2019-05-17T01:07:01.769Z,11.50
2019-05-17T01:09:31.968Z,11.50
2019-05-17T01:12:02.185Z,11.30
2019-05-17T01:14:32.416Z,11.10
2019-05-17T01:17:02.707Z,11.10
2019-05-17T01:19:32.896Z,11.10
2019-05-17T01:22:03.097Z,11.30
2019-05-17T01:24:33.274Z,11.30
2019-05-17T01:27:03.471Z,11.30
2019-05-17T01:29:33.662Z,11.40
2019-05-17T01:32:06.522Z,11.30
2019-05-17T01:34:37.675Z,11.40
2019-05-17T01:37:07.886Z,11.50
2019-05-17T01:39:38.148Z,11.60
2019-05-17T01:42:08.339Z,11.70
2019-05-17T01:44:38.532Z,11.30
2019-05-17T01:47:08.799Z,11.40
2019-05-17T01:49:39.094Z,11.60
2019-05-17T01:52:09.369Z,11.70
2019-05-17T01:54:39.574Z,11.70
2019-05-17T01:57:09.818Z,11.80
2019-05-17T01:59:40.093Z,11.90
2019-05-17T02:02:13.510Z,11.70
2019-05-17T02:04:43.693Z,11.30
2019-05-17T02:07:13.961Z,11.20
2019-05-17T02:09:44.230Z,11.20
2019-05-17T02:12:14.404Z,11.00
2019-05-17T02:14:46.670Z,10.70
2019-05-17T02:17:17.424Z,10.80
2019-05-17T02:19:47.717Z,10.70
2019-05-17T02:22:17.925Z,10.90
2019-05-17T02:24:48.094Z,10.80
2019-05-17T02:27:18.510Z,10.60
2019-05-17T02:29:48.697Z,10.50
2019-05-17T02:32:18.978Z,10.70
2019-05-17T02:34:49.231Z,10.70
2019-05-17T02:37:22.932Z,10.90
2019-05-17T02:40:02.165Z,11.10
2019-05-17T02:42:23.601Z,11.20
2019-05-17T02:44:53.799Z,11.20
2019-05-17T02:47:24.102Z,11.10
2019-05-17T02:49:54.369Z,10.90
2019-05-17T02:52:24.572Z,11.00
2019-05-17T02:54:54.764Z,10.90
2019-05-17T02:57:24.982Z,11.00
2019-05-17T02:59:55.166Z,11.10
2019-05-17T03:02:28.008Z,11.00
2019-05-17T03:04:57.791Z,11.00
2019-05-17T03:07:28.047Z,11.10
2019-05-17T03:10:12.323Z,11.10
2019-05-17T03:12:33.006Z,11.00
2019-05-17T03:15:04.023Z,10.90
2019-05-17T03:17:34.242Z,10.60
2019-05-17T03:20:05.300Z,10.70
2019-05-17T03:22:35.578Z,10.70
2019-05-17T03:25:06.035Z,10.70
2019-05-17T03:27:36.274Z,10.70
2019-05-17T03:30:07.358Z,10.60
2019-05-17T03:32:38.470Z,10.60
2019-05-17T03:35:15.588Z,10.80
2019-05-17T03:37:43.778Z,10.80
2019-05-17T03:40:30.631Z,10.80
2019-05-17T03:42:45.729Z,10.90
2019-05-17T03:45:16.003Z,10.80
2019-05-17T03:47:46.284Z,10.80
2019-05-17T03:50:16.588Z,10.60
2019-05-17T03:52:46.807Z,10.60
2019-05-17T03:55:17.003Z,10.70
2019-05-17T03:57:47.300Z,10.80
2019-05-17T04:00:18.066Z,10.70
2019-05-17T04:02:48.271Z,10.80
2019-05-17T04:05:18.454Z,10.80
2019-05-17T04:07:48.653Z,10.60
2019-05-17T04:10:19.151Z,10.50
2019-05-17T04:12:52.698Z,10.60
2019-05-17T04:15:24.041Z,10.70
2019-05-17T04:17:54.947Z,10.80
2019-05-17T04:20:25.130Z,10.90
2019-05-17T04:22:59.117Z,10.80
2019-05-17T04:25:29.302Z,10.80
2019-05-17T04:28:02.619Z,10.70
2019-05-17T04:30:32.591Z,10.80
2019-05-17T04:33:03.925Z,10.90
2019-05-17T04:35:34.331Z,10.80
2019-05-17T04:38:04.689Z,10.90
2019-05-17T04:40:34.946Z,10.90
2019-05-17T04:43:05.171Z,11.00
2019-05-17T04:45:35.584Z,11.00
2019-05-17T04:48:05.978Z,11.00
2019-05-17T04:50:36.164Z,11.10
2019-05-17T04:53:06.515Z,11.10
2019-05-17T04:55:36.808Z,11.10
2019-05-17T04:58:07.022Z,11.10
2019-05-17T05:00:37.209Z,11.00
2019-05-17T05:03:07.509Z,11.10
2019-05-17T05:05:37.769Z,11.20
2019-05-17T05:08:07.991Z,11.20
2019-05-17T05:10:38.732Z,11.20
2019-05-17T05:13:09.051Z,11.30
2019-05-17T05:15:43.934Z,11.30
2019-05-17T05:18:13.612Z,11.40
2019-05-17T05:20:44.167Z,11.40
2019-05-17T05:23:14.405Z,11.40
2019-05-17T05:25:44.699Z,11.30
2019-05-17T05:28:14.895Z,11.30
2019-05-17T05:30:45.171Z,11.20
2019-05-17T05:33:15.403Z,11.20
2019-05-17T05:35:45.617Z,11.30
2019-05-17T05:38:15.824Z,11.30
2019-05-17T05:40:46.020Z,11.40
2019-05-17T05:43:16.294Z,11.50
2019-05-17T05:45:46.513Z,11.50
2019-05-17T05:48:16.689Z,11.60
2019-05-17T05:50:46.982Z,11.70
2019-05-17T05:53:17.160Z,11.80
2019-05-17T05:55:47.349Z,11.90
2019-05-17T05:58:17.554Z,11.90
2019-05-17T06:00:47.819Z,12.00
2019-05-17T06:03:18.072Z,12.10
2019-05-17T06:05:48.361Z,12.20
2019-05-17T06:08:18.597Z,12.20
2019-05-17T06:10:48.780Z,12.20
2019-05-17T06:13:18.969Z,12.20
2019-05-17T06:15:51.618Z,12.40
2019-05-17T06:18:22.674Z,12.50
2019-05-17T06:20:53.076Z,13.00
2019-05-17T06:23:23.651Z,13.40
2019-05-17T06:25:53.867Z,14.10
2019-05-17T06:28:24.065Z,14.80
2019-05-17T06:30:54.303Z,15.10
2019-05-17T06:33:30.572Z,15.40
2019-05-17T06:35:56.607Z,16.00
2019-05-17T06:38:26.844Z,15.90
2019-05-17T06:40:57.050Z,16.00
2019-05-17T06:43:27.237Z,16.50
2019-05-17T06:45:57.435Z,16.90
2019-05-17T06:48:27.636Z,17.10
2019-05-17T06:50:57.849Z,17.80
2019-05-17T06:53:28.076Z,17.50
2019-05-17T06:55:58.342Z,17.70
2019-05-17T06:58:28.612Z,17.50
2019-05-17T07:00:59.984Z,17.70
2019-05-17T07:03:30.293Z,17.90
2019-05-17T07:06:02.233Z,17.90
2019-05-17T07:08:32.440Z,18.10
2019-05-17T07:11:05.761Z,18.50
2019-05-17T07:13:35.972Z,18.90
2019-05-17T07:16:06.304Z,18.90
2019-05-17T07:18:36.480Z,19.20
2019-05-17T07:21:06.790Z,19.50
2019-05-17T07:23:37.019Z,19.70
2019-05-17T07:26:09.222Z,19.60
2019-05-17T07:28:40.432Z,19.60
2019-05-17T07:31:10.908Z,19.40
2019-05-17T07:33:41.189Z,19.70
2019-05-17T07:36:11.486Z,19.40
2019-05-17T07:38:41.712Z,19.60
2019-05-17T07:41:11.913Z,20.00
2019-05-17T07:43:42.124Z,20.00
2019-05-17T07:46:12.362Z,20.20
2019-05-17T07:48:42.585Z,20.50
2019-05-17T07:51:12.836Z,20.60
2019-05-17T07:53:43.045Z,20.30
2019-05-17T07:56:13.258Z,20.40
2019-05-17T07:58:43.468Z,20.40
2019-05-17T08:01:13.736Z,20.70
2019-05-17T08:03:44.050Z,21.10
2019-05-17T08:06:14.250Z,21.10
2019-05-17T08:08:44.504Z,20.80
2019-05-17T08:11:14.774Z,20.90
2019-05-17T08:13:45.062Z,20.70
2019-05-17T08:16:15.328Z,20.60
2019-05-17T08:18:45.557Z,21.20
2019-05-17T08:21:15.840Z,21.30
2019-05-17T08:23:46.126Z,20.70
2019-05-17T08:26:16.334Z,20.00
2019-05-17T08:28:46.922Z,20.20
2019-05-17T08:31:17.129Z,20.30
2019-05-17T08:33:49.785Z,20.50
2019-05-17T08:36:20.279Z,20.40
2019-05-17T08:38:50.606Z,20.80
2019-05-17T08:41:20.992Z,20.80
2019-05-17T08:43:51.593Z,20.70
2019-05-17T08:46:21.987Z,20.20
2019-05-17T08:48:52.265Z,20.00
2019-05-17T08:51:22.549Z,19.60
2019-05-17T08:53:52.862Z,19.50
2019-05-17T08:56:23.215Z,19.30
2019-05-17T08:58:53.547Z,19.10
2019-05-17T09:01:23.843Z,19.20
2019-05-17T09:03:54.183Z,19.00
2019-05-17T09:06:24.464Z,19.10
2019-05-17T09:08:54.890Z,19.00
2019-05-17T09:11:25.172Z,19.00
2019-05-17T09:13:58.325Z,19.20
2019-05-17T09:16:27.464Z,19.00
2019-05-17T09:18:57.771Z,19.00
2019-05-17T09:21:31.070Z,18.70
2019-05-17T09:24:00.070Z,18.60
2019-05-17T09:26:30.368Z,18.50
2019-05-17T09:29:01.593Z,18.90
2019-05-17T09:31:34.816Z,18.80
2019-05-17T09:34:05.105Z,18.60
2019-05-17T09:36:35.420Z,18.30
2019-05-17T09:39:06.755Z,18.40
2019-05-17T09:41:36.978Z,18.60
2019-05-17T09:44:12.823Z,18.70
2019-05-17T09:46:39.657Z,18.70
2019-05-17T09:49:10.367Z,18.90
2019-05-17T09:51:40.901Z,19.10
2019-05-17T09:54:11.170Z,19.20
2019-05-17T09:56:41.466Z,19.10
2019-05-17T09:59:11.760Z,19.20
2019-05-17T10:01:42.032Z,19.10
2019-05-17T10:04:13.708Z,19.00
2019-05-17T10:06:44.383Z,18.80
2019-05-17T10:09:14.852Z,19.20
2019-05-17T10:11:45.156Z,19.20
2019-05-17T10:14:25.798Z,19.40
2019-05-17T10:16:47.462Z,19.50
2019-05-17T10:19:20.866Z,19.50
2019-05-17T10:21:49.845Z,19.20
2019-05-17T10:24:33.811Z,19.30
2019-05-17T10:26:52.079Z,19.20
2019-05-17T10:29:22.402Z,19.30
2019-05-17T10:31:52.737Z,19.40
2019-05-17T10:34:23.062Z,19.70
2019-05-17T10:36:53.325Z,19.80
2019-05-17T10:39:23.627Z,19.60
2019-05-17T10:41:53.934Z,19.70
2019-05-17T10:44:24.141Z,19.80
2019-05-17T10:46:54.420Z,20.00
2019-05-17T10:49:24.610Z,20.00
2019-05-17T10:51:54.856Z,19.90
2019-05-17T10:54:25.178Z,20.20
2019-05-17T10:56:55.497Z,20.20
2019-05-17T10:59:25.744Z,20.00
2019-05-17T11:01:56.063Z,19.80
2019-05-17T11:04:26.371Z,19.70
2019-05-17T11:06:56.664Z,19.90
2019-05-17T11:09:27.014Z,20.00
2019-05-17T11:11:57.335Z,20.20
2019-05-17T11:14:27.616Z,20.20
2019-05-17T11:16:57.914Z,20.20
2019-05-17T11:19:28.212Z,19.90
2019-05-17T11:21:58.562Z,20.00
2019-05-17T11:24:28.774Z,20.00
2019-05-17T11:26:59.102Z,20.10
2019-05-17T11:29:29.400Z,20.30
2019-05-17T11:31:59.689Z,20.20
2019-05-17T11:34:29.943Z,20.20
2019-05-17T11:37:00.268Z,20.20
2019-05-17T11:39:30.589Z,20.30
2019-05-17T11:42:00.874Z,20.50
2019-05-17T11:44:31.107Z,20.60
2019-05-17T11:47:01.388Z,20.60
2019-05-17T11:49:31.594Z,20.60
2019-05-17T11:52:01.861Z,20.60
2019-05-17T11:54:32.880Z,20.80
2019-05-17T11:57:03.157Z,20.80
2019-05-17T11:59:33.474Z,20.80
2019-05-17T12:02:03.768Z,20.90
2019-05-17T12:04:34.024Z,20.90
2019-05-17T12:07:04.311Z,21.00
2019-05-17T12:09:37.216Z,21.00
2019-05-17T12:12:06.484Z,20.70
2019-05-17T12:14:36.763Z,20.70
2019-05-17T12:17:07.074Z,20.70
2019-05-17T12:19:37.487Z,20.80
2019-05-17T12:22:07.783Z,20.90
2019-05-17T12:24:38.072Z,20.90
2019-05-17T12:27:08.314Z,21.00
2019-05-17T12:29:38.610Z,21.10
2019-05-17T12:32:08.996Z,21.20
2019-05-17T12:34:39.371Z,21.30
2019-05-17T12:37:09.701Z,21.40
2019-05-17T12:39:40.019Z,21.30
2019-05-17T12:42:10.364Z,21.00
2019-05-17T12:44:40.624Z,20.90
2019-05-17T12:47:10.853Z,20.80
2019-05-17T12:49:41.135Z,20.80
2019-05-17T12:52:11.330Z,20.90
2019-05-17T12:54:41.591Z,20.80
2019-05-17T12:57:11.910Z,20.80
2019-05-17T12:59:42.233Z,20.80
2019-05-17T13:02:12.717Z,20.90
2019-05-17T13:04:42.952Z,20.80
2019-05-17T13:07:13.195Z,20.80
2019-05-17T13:09:43.385Z,20.90
2019-05-17T13:12:13.695Z,21.00
2019-05-17T13:14:44.081Z,21.20
2019-05-17T13:17:14.322Z,21.30
2019-05-17T13:19:44.608Z,21.50
2019-05-17T13:22:14.915Z,21.40
2019-05-17T13:24:45.111Z,21.40
2019-05-17T13:27:15.370Z,21.30
2019-05-17T13:29:45.578Z,21.20
2019-05-17T13:32:15.841Z,21.30
2019-05-17T13:34:46.115Z,21.60
2019-05-17T13:37:16.406Z,21.70
2019-05-17T13:39:46.710Z,21.90
2019-05-17T13:42:17.046Z,21.80
2019-05-17T13:44:47.297Z,22.00
2019-05-17T13:47:17.524Z,21.90
2019-05-17T13:49:47.758Z,21.70
2019-05-17T13:52:18.061Z,21.60
2019-05-17T13:54:48.241Z,21.60
2019-05-17T13:57:18.459Z,21.60
2019-05-17T13:59:48.699Z,21.70
2019-05-17T14:02:19.031Z,21.60
2019-05-17T14:04:49.293Z,21.70
2019-05-17T14:07:19.505Z,21.70
2019-05-17T14:09:49.886Z,21.70
2019-05-17T14:12:20.235Z,21.60
2019-05-17T14:14:50.477Z,21.60
2019-05-17T14:17:20.775Z,21.50
2019-05-17T14:19:51.021Z,21.40
2019-05-17T14:22:21.416Z,21.30
2019-05-17T14:24:51.709Z,21.30
2019-05-17T14:27:21.933Z,21.20
2019-05-17T14:29:52.260Z,21.10
2019-05-17T14:32:23.061Z,21.10
2019-05-17T14:34:53.350Z,21.10
2019-05-17T14:37:23.649Z,21.10
2019-05-17T14:39:53.924Z,21.10
2019-05-17T14:42:24.172Z,21.00
2019-05-17T14:44:54.389Z,21.20
2019-05-17T14:47:24.703Z,21.20
2019-05-17T14:49:54.980Z,21.10
2019-05-17T14:52:25.341Z,21.10
2019-05-17T14:54:55.661Z,21.00
2019-05-17T14:57:25.974Z,20.90
2019-05-17T14:59:56.320Z,20.80
2019-05-17T15:02:26.689Z,20.60
2019-05-17T15:04:57.043Z,20.60
2019-05-17T15:07:27.342Z,20.50
2019-05-17T15:09:57.628Z,20.40
2019-05-17T15:12:29.010Z,20.30
2019-05-17T15:14:59.471Z,20.30
2019-05-17T15:17:29.844Z,20.20
2019-05-17T15:20:00.131Z,20.30
2019-05-17T15:22:30.460Z,20.30
2019-05-17T15:25:00.691Z,20.30
2019-05-17T15:27:31.039Z,20.30
2019-05-17T15:30:01.401Z,20.00
2019-05-17T15:32:31.709Z,19.90
2019-05-17T15:35:01.968Z,19.70
2019-05-17T15:37:32.309Z,19.50
2019-05-17T15:40:02.626Z,19.60
2019-05-17T15:42:43.581Z,19.50
2019-05-17T15:45:05.638Z,19.40
2019-05-17T15:47:35.922Z,19.20
2019-05-17T15:50:06.403Z,19.00
2019-05-17T15:52:36.809Z,18.90
2019-05-17T15:55:08.029Z,18.80
2019-05-17T15:57:38.337Z,18.90
2019-05-17T16:00:09.147Z,18.80
2019-05-17T16:02:39.528Z,18.70
2019-05-17T16:05:10.183Z,18.50
2019-05-17T16:07:40.492Z,18.60
2019-05-17T16:10:12.587Z,18.60
2019-05-17T16:12:42.953Z,18.60
2019-05-17T16:15:14.100Z,18.60
2019-05-17T16:17:44.342Z,18.60
2019-05-17T16:20:16.953Z,18.50
2019-05-17T16:22:47.475Z,18.30
2019-05-17T16:25:17.850Z,18.30
2019-05-17T16:27:48.192Z,18.30
2019-05-17T16:30:18.582Z,18.20
2019-05-17T16:32:48.882Z,18.20
2019-05-17T16:35:19.210Z,18.10
2019-05-17T16:37:49.435Z,18.10
2019-05-17T16:40:19.667Z,18.10
2019-05-17T16:42:49.966Z,17.90
2019-05-17T16:45:20.275Z,17.80
2019-05-17T16:47:50.559Z,17.70
2019-05-17T16:50:20.981Z,17.70
2019-05-17T16:53:05.031Z,17.70
2019-05-17T16:55:26.033Z,17.70
2019-05-17T16:57:55.201Z,17.70
2019-05-17T17:00:36.410Z,17.70
2019-05-17T17:03:06.897Z,17.60
2019-05-17T17:05:37.628Z,17.60
2019-05-17T17:08:08.031Z,17.60
2019-05-17T17:10:38.468Z,17.30
2019-05-17T17:13:09.997Z,17.30
2019-05-17T17:15:41.395Z,17.30
2019-05-17T17:18:11.729Z,17.40
2019-05-17T17:20:42.086Z,17.50
2019-05-17T17:23:12.374Z,17.30
2019-05-17T17:25:42.883Z,17.30
2019-05-17T17:28:13.175Z,17.10
2019-05-17T17:30:43.467Z,17.00
2019-05-17T17:33:13.808Z,17.10
2019-05-17T17:35:44.165Z,16.90
2019-05-17T17:38:14.566Z,17.00
2019-05-17T17:40:44.862Z,17.10
2019-05-17T17:43:16.064Z,17.10
2019-05-17T17:45:46.377Z,17.20
2019-05-17T17:48:16.698Z,17.10
2019-05-17T17:50:48.454Z,17.20
2019-05-17T17:53:19.633Z,17.20
2019-05-17T17:55:50.539Z,17.30
2019-05-17T17:58:20.941Z,17.30
2019-05-17T18:00:52.164Z,17.20
2019-05-17T18:03:22.519Z,17.20
2019-05-17T18:05:52.755Z,17.30
2019-05-17T18:08:23.057Z,17.20
2019-05-17T18:10:53.373Z,17.20
2019-05-17T18:13:23.722Z,17.20
2019-05-17T18:15:54.017Z,17.30
2019-05-17T18:18:24.440Z,17.20
2019-05-17T18:20:54.724Z,16.90
2019-05-17T18:23:25.040Z,16.90
2019-05-17T18:25:55.658Z,17.00
2019-05-17T18:28:25.962Z,17.00
2019-05-17T18:30:56.198Z,17.10
2019-05-17T18:33:26.521Z,16.90
2019-05-17T18:35:56.797Z,16.70
2019-05-17T18:38:29.525Z,16.30
2019-05-17T18:40:59.855Z,16.20
2019-05-17T18:43:30.169Z,16.20
2019-05-17T18:46:00.476Z,16.30
2019-05-17T18:48:30.799Z,16.30
2019-05-17T18:51:01.060Z,16.30
2019-05-17T18:53:34.425Z,16.10
2019-05-17T18:56:04.728Z,16.00
2019-05-17T18:58:35.041Z,16.20
2019-05-17T19:01:05.439Z,16.30
2019-05-17T19:03:35.774Z,16.20
2019-05-17T19:06:06.246Z,16.40
2019-05-17T19:08:36.600Z,16.30
2019-05-17T19:11:07.028Z,15.90
2019-05-17T19:13:37.358Z,15.90
2019-05-17T19:16:07.653Z,15.70
2019-05-17T19:18:37.950Z,15.80
2019-05-17T19:21:08.280Z,15.60
2019-05-17T19:23:38.578Z,15.70
2019-05-17T19:26:08.925Z,15.60
2019-05-17T19:28:39.220Z,15.50
2019-05-17T19:31:09.614Z,15.60
2019-05-17T19:33:39.983Z,15.60
2019-05-17T19:36:10.307Z,15.50
2019-05-17T19:38:40.626Z,15.60
2019-05-17T19:41:10.934Z,15.60
2019-05-17T19:43:41.196Z,15.60
2019-05-17T19:46:11.485Z,15.70
2019-05-17T19:48:41.810Z,15.70
2019-05-17T19:51:12.049Z,15.60
2019-05-17T19:53:42.312Z,15.90
2019-05-17T19:56:12.695Z,16.10
2019-05-17T19:58:43.063Z,16.20
2019-05-17T20:01:13.413Z,16.20
2019-05-17T20:03:43.653Z,16.30
2019-05-17T20:06:13.981Z,16.40
2019-05-17T20:08:44.230Z,16.40
2019-05-17T20:11:14.554Z,16.30
2019-05-17T20:13:44.729Z,16.10
2019-05-17T20:16:14.965Z,16.10
2019-05-17T20:18:45.230Z,16.30
2019-05-17T20:21:15.580Z,16.20
2019-05-17T20:23:45.813Z,16.20
2019-05-17T20:26:16.138Z,16.00
2019-05-17T20:28:46.392Z,16.00
2019-05-17T20:31:16.652Z,16.10
2019-05-17T20:33:46.971Z,16.20
2019-05-17T20:36:17.295Z,16.20
2019-05-17T20:38:47.516Z,16.00
2019-05-17T20:41:17.918Z,15.80
2019-05-17T20:43:48.178Z,15.80
2019-05-17T20:46:18.497Z,15.90
2019-05-17T20:48:48.840Z,15.80
2019-05-17T20:51:19.138Z,15.90
2019-05-17T20:53:49.462Z,15.90
2019-05-17T20:56:31.874Z,16.00
2019-05-17T20:58:51.825Z,16.10
2019-05-17T21:01:22.158Z,16.20
2019-05-17T21:03:52.419Z,16.20
2019-05-17T21:06:22.731Z,15.90
2019-05-17T21:08:52.978Z,15.90
2019-05-17T21:11:23.276Z,15.90
2019-05-17T21:13:53.563Z,16.00
2019-05-17T21:16:23.888Z,16.10
2019-05-17T21:18:54.094Z,16.00
2019-05-17T21:21:24.326Z,16.10
2019-05-17T21:23:54.593Z,16.10
2019-05-17T21:26:24.913Z,16.10
2019-05-17T21:28:55.203Z,16.10
2019-05-17T21:31:25.497Z,16.00
2019-05-17T21:33:55.725Z,16.10
2019-05-17T21:36:26.024Z,16.00
2019-05-17T21:38:56.388Z,16.10
2019-05-17T21:41:26.588Z,16.10
2019-05-17T21:43:56.793Z,16.10
2019-05-17T21:46:27.058Z,16.10
2019-05-17T21:48:57.360Z,15.80
2019-05-17T21:51:27.656Z,15.90
2019-05-17T21:53:57.873Z,15.70
2019-05-17T21:56:28.231Z,15.80
2019-05-17T21:58:58.531Z,15.60
2019-05-17T22:01:30.600Z,15.40
2019-05-17T22:04:00.910Z,15.30
2019-05-17T22:06:31.262Z,15.40
2019-05-17T22:09:01.646Z,15.50
2019-05-17T22:11:32.005Z,15.60
2019-05-17T22:14:02.313Z,15.80
2019-05-17T22:16:32.581Z,15.90
2019-05-17T22:19:02.863Z,15.70
2019-05-17T22:21:33.148Z,15.80
2019-05-17T22:24:03.397Z,15.90
2019-05-17T22:26:33.773Z,16.00
2019-05-17T22:29:04.076Z,16.00
2019-05-17T22:31:34.377Z,16.10
2019-05-17T22:34:04.650Z,16.00
2019-05-17T22:36:34.940Z,15.90
2019-05-17T22:39:06.663Z,15.60
2019-05-17T22:41:36.954Z,15.70
2019-05-17T22:44:07.234Z,15.50
2019-05-17T22:46:37.457Z,15.70
2019-05-17T22:49:07.777Z,15.80
2019-05-17T22:51:38.015Z,15.90
2019-05-17T22:54:08.266Z,15.90
2019-05-17T22:56:38.458Z,15.90
2019-05-17T22:59:08.716Z,16.00
2019-05-17T23:01:39.035Z,16.00
2019-05-17T23:04:10.119Z,15.80
2019-05-17T23:06:40.425Z,15.60
2019-05-17T23:09:10.656Z,15.40
2019-05-17T23:11:40.860Z,15.60
2019-05-17T23:14:11.134Z,15.70
2019-05-17T23:16:50.987Z,15.60
2019-05-17T23:19:13.312Z,15.60
2019-05-17T23:21:43.650Z,15.60
2019-05-17T23:24:13.909Z,15.80
2019-05-17T23:26:44.118Z,15.90
2019-05-17T23:29:14.410Z,15.80
2019-05-17T23:31:44.694Z,15.90
2019-05-17T23:34:14.890Z,15.90
2019-05-17T23:36:45.188Z,15.90
2019-05-17T23:39:15.437Z,15.80
2019-05-17T23:41:45.713Z,15.60
2019-05-17T23:44:16.005Z,15.40
2019-05-17T23:46:46.285Z,15.40
2019-05-17T23:49:16.569Z,15.50
2019-05-17T23:51:46.868Z,15.60
2019-05-17T23:54:17.202Z,15.60
2019-05-17T23:56:47.496Z,15.60
2019-05-17T23:59:17.719Z,15.60
